Tiempo atmosférico en la estación meteorológica de Andorra, Teruel (762 m.)



Fecha
DESCASC
Temp. máxima en grados centígrados (hora)
DESCASC
Temp. mínima en grados centígrados (hora)
DESCASC
Temp. media en grados centígrados
DESCASC
Racha de viento máxima en m/sg (hora)
DESCASC
Velocidad máxima media en intervalos de 10 minutos(hora)
DESCASC
Precipitaciones diarias en mm
DESCASC
Precipitaciones de 00:00 a 06:00 en mm
DESCASC
Precipitaciones de 06:00 a 12:00 en mm
DESCASC
Precipitaciones de 12:00 a 18:00 en mm
DESCASC
Precipitaciones de 18:00 a 24:00 en mm
DESCASC
19-08-2018 26.7 (17:00) 14.3 (07:00) 20.5 7.5 (14:00) 5.28 (04:10) 0 0 0 0 0
18-08-2018 23.7 (15:50) 10.9 (07:10) 17.3 13.89 (00:10) 11.39 (00:10) 0 0 0 0 0
17-08-2018 26.1 (16:00) 15.2 (00:00) 20.7 14.72 (23:30) 11.39 (23:50) 1 0.8 0.2 0 0
16-08-2018 29.6 (16:00) 17.6 (00:00) 23.6 21.39 (22:10) 16.67 (19:20) 0.2 0 0 0 0.2
15-08-2018 26.7 (16:10) 13.7 (00:00) 20.2 9.72 (04:20) 7.78 (03:20) 0 0 0 0 0
14-08-2018 25.8 (17:40) 15 (00:00) 20.4 13.89 (00:50) 9.72 (00:50) 0 0 0 0 0
13-08-2018 28 (18:30) 17.9 (00:00) 22.9 13.06 (22:10) 9.44 (22:00) 0.2 0.2 0 0 0
12-08-2018 30.8 (14:20) 18.9 (00:00) 24.8 15 (16:50) 11.11 (20:00) 2.4 0 0 1.2 1.2
11-08-2018 28.4 (14:50) 17.8 (00:00) 23.1 10.28 (16:00) 7.78 (15:20) 0 0 0 0 0
10-08-2018 25.8 (17:40) 14.6 (06:10) 20.2 10.56 (18:00) 7.78 (18:00) 0 0 0 0 0
09-08-2018 25.8 (17:20) 17.6 (00:00) 21.7 11.39 (13:40) 8.61 (12:20) 0 0 0 0 0
08-08-2018 34.4 (15:40) 17.3 (00:00) 25.9 15 (18:10) 10 (19:10) 0 0 0 0 0
07-08-2018 33.6 (14:00) 22.3 (00:00) 27.9 20.28 (16:00) 13.89 (16:10) 0.2 0 0 0.2 0
06-08-2018 33.6 (15:50) 22.1 (00:00) 27.8 13.61 (16:30) 8.06 (16:30) 0 0 0 0 0
05-08-2018 33.5 (16:40) 20 (00:00) 26.8 8.33 (16:10) 6.67 (06:00) 0 0 0 0 0
04-08-2018 33.5 (18:30) 21.1 (07:10) 27.3 11.39 (04:40) 9.17 (04:40) 0 0 0 0 0
03-08-2018 34.6 (17:50) 23.2 (00:00) 28.9 9.44 (13:40) 6.67 (23:20) 0 0 0 0 0
02-08-2018 33.9 (16:00) 20.3 (00:00) 27.1 8.33 (18:00) 5.83 (18:00) 0 0 0 0 0
01-08-2018 32.8 (18:50) 18.6 (07:10) 25.7 10.56 (16:40) 7.22 (18:50) 0 0 0 0 0
31-07-2018 31.9 (17:40) 20.2 (00:00) 26.1 9.17 (19:20) 6.11 (06:00) 0 0 0 0 0
30-07-2018 32 (18:00) 20.3 (00:00) 26.1 10.56 (19:00) 8.61 (19:00) 0 0 0 0 0
29-07-2018 31.9 (15:50) 19.1 (00:00) 25.5 11.11 (16:50) 6.39 (17:50) 0 0 0 0 0
28-07-2018 30.1 (18:00) 19.3 (00:00) 24.7 12.5 (01:20) 9.17 (01:20) 0 0 0 0 0
27-07-2018 33 (17:50) 19.7 (00:00) 26.4 13.33 (18:40) 9.17 (18:10) 0 0 0 0 0
26-07-2018 32.8 (17:10) 21.6 (00:00) 27.2 13.06 (18:50) 9.17 (19:20) 0 0 0 0 0
25-07-2018 30.5 (18:20) 18.8 (00:00) 24.6 10 (21:20) 6.94 (01:30) 0 0 0 0 0
24-07-2018 31.4 (17:30) 20.9 (00:00) 26.1 8.89 (01:30) 5.83 (01:30) 0 0 0 0 0
23-07-2018 29.7 (17:30) 17 (00:00) 23.4 9.17 (18:20) 6.39 (17:40) 0 0 0 0 0

Gráficas

Temp. máximas Temp. mínimas Temp. medias Precipitaciones Rachas de viento máximas Velocidades máximas media en intervalos de 10 minutos

Datos horarios

Fecha y hora oficial Temperatura (ºC) Velocidad del viento (km/h) Dirección del viento Racha (km/h) Dirección de racha Precipitación (mm) Presión (hPa) Tendencia (hPa) Humedad (%)
2018-08-21 23:00:00 24 13 Sudoeste 20 Sudoeste 0 -- -- 45
2018-08-21 22:00:00 24.9 12 Sudoeste 17 Sur 0 -- -- 44
2018-08-21 21:00:00 26.7 10 Sur 16 Sudeste 0 -- -- 39
2018-08-21 20:00:00 27.5 10 Sudeste 21 Este 0 -- -- 37
2018-08-21 19:00:00 28.1 11 Este 26 Este 0 -- -- 37
2018-08-21 18:00:00 28.7 15 Este 30 Este 0 -- -- 38
2018-08-21 17:00:00 29.2 17 Nordeste 30 Nordeste 0 -- -- 34
2018-08-21 16:00:00 28.8 15 Nordeste 30 Nordeste 0 -- -- 34
2018-08-21 15:00:00 28.4 15 Nordeste 28 Este 0 -- -- 35
2018-08-21 14:00:00 28.3 15 Este 25 Este 0 -- -- 40
2018-08-21 13:00:00 26.7 13 Nordeste 23 Nordeste 0 -- -- 45
2018-08-21 12:00:00 25.7 14 Este 24 Este 0 -- -- 48
2018-08-21 11:00:00 24 7 Nordeste 14 Nordeste 0 -- -- 52
2018-08-21 10:00:00 22.1 7 Nordeste 11 Este 0 -- -- 57
2018-08-21 09:00:00 19.1 4 Sudoeste 12 Oeste 0 -- -- 68
2018-08-21 08:00:00 18 10 Oeste 18 Oeste 0 -- -- 72
2018-08-21 07:00:00 17.9 12 Oeste 19 Oeste 0 -- -- 71
2018-08-21 06:00:00 18.3 14 Oeste 18 Oeste 0 -- -- 70
2018-08-21 05:00:00 18.7 17 Oeste 20 Oeste 0 -- -- 68
2018-08-21 04:00:00 19.5 15 Oeste 17 Oeste 0 -- -- 62
2018-08-21 03:00:00 20.1 14 Oeste 19 Oeste 0 -- -- 58
2018-08-21 02:00:00 21.7 10 Oeste 16 Oeste 0 -- -- 53
2018-08-21 01:00:00 22.2 13 Oeste 17 Oeste 0 -- -- 52
2018-08-21 00:00:00 23.9 5 Sudoeste 9 Sudoeste 0 -- -- 44
2018-08-20 23:00:00 23.9 7 Sudoeste 10 Sudeste 0 -- -- 44
2018-08-20 22:00:00 25.2 4 Este 9 Nordeste 0 -- -- 41
2018-08-20 21:00:00 25.4 8 Nordeste 16 Este 0 -- -- 41
2018-08-20 20:00:00 26.5 11 Nordeste 19 Nordeste 0 -- -- 39
2018-08-20 19:00:00 27 17 Nordeste 24 Nordeste 0 -- -- 40
2018-08-20 18:00:00 27.4 14 Nordeste 26 Nordeste 0 -- -- 39
2018-08-20 17:00:00 27.5 14 Nordeste 28 Nordeste 0 -- -- 39
2018-08-20 16:00:00 27.9 13 Norte 28 Nordeste 0 -- -- 39
2018-08-20 15:00:00 27.6 15 Nordeste 26 Nordeste 0 -- -- 41
2018-08-20 14:00:00 26.5 10 Nordeste 25 Nordeste 0 -- -- 43
2018-08-20 13:00:00 25.3 10 Este 19 Nordeste 0 -- -- 45
2018-08-20 12:00:00 23 5 Oeste 12 Sudoeste 0 -- -- 51
2018-08-20 11:00:00 21 6 Oeste 18 Oeste 0 -- -- 57
2018-08-20 10:00:00 19.3 9 Oeste 16 Oeste 0 -- -- 64
2018-08-20 09:00:00 17.1 10 Oeste 18 Oeste 0 -- -- 74
2018-08-20 08:00:00 15.8 12 Sudoeste 18 Oeste 0 -- -- 79
2018-08-20 07:00:00 15.8 12 Oeste 17 Oeste 0 -- -- 78
2018-08-20 06:00:00 16.4 15 Oeste 19 Oeste 0 -- -- 75
2018-08-20 05:00:00 17.5 12 Oeste 17 Sudoeste 0 -- -- 68
2018-08-20 04:00:00 17.9 11 Sudoeste 24 Oeste 0 -- -- 67
2018-08-20 03:00:00 18.3 17 Oeste 24 Oeste 0 -- -- 62
2018-08-20 02:00:00 19 20 Oeste 28 Oeste 0 -- -- 57
2018-08-20 01:00:00 20.5 13 Oeste 17 Oeste 0 -- -- 51
2018-08-20 00:00:00 22.4 6 Oeste 9 Noroeste 0 -- -- 44
2018-08-19 23:00:00 23.2 8 Noroeste 12 Noroeste 0 -- -- 42
2018-08-19 22:00:00 23.5 8 Noroeste 11 Noroeste 0 -- -- 42
2018-08-19 21:00:00 24.4 7 Norte 13 Nordeste 0 -- -- 38
2018-08-19 20:00:00 25.4 8 Nordeste 19 Nordeste 0 -- -- 35
2018-08-19 19:00:00 26 14 Nordeste 26 Nordeste 0 -- -- 36
2018-08-19 18:00:00 26.6 9 Norte 25 Nordeste 0 -- -- 36
2018-08-19 17:00:00 26.7 9 Norte 25 Nordeste 0 -- -- 37
2018-08-19 16:00:00 26.3 12 Nordeste 23 Noroeste 0 -- -- 38
2018-08-19 15:00:00 25.7 14 Nordeste 26 Nordeste 0 -- -- 42
2018-08-19 14:00:00 25.3 14 Nordeste 27 Nordeste 0 -- -- 45
2018-08-19 13:00:00 24.4 12 Nordeste 19 Nordeste 0 -- -- 44
2018-08-19 12:00:00 23.8 11 Nordeste 19 Nordeste 0 -- -- 47
2018-08-19 11:00:00 20.3 5 Noroeste 17 Oeste 0 -- -- 56
2018-08-19 10:00:00 18.4 13 Oeste 17 Oeste 0 -- -- 63
2018-08-19 09:00:00 15.9 11 Oeste 15 Oeste 0 -- -- 72
2018-08-19 08:00:00 14.4 13 Oeste 17 Oeste 0 -- -- 75
2018-08-19 07:00:00 14.3 14 Oeste 17 Oeste 0 -- -- 76
2018-08-19 06:00:00 14.6 14 Oeste 18 Oeste 0 -- -- 74
2018-08-19 05:00:00 15 14 Oeste 24 Oeste 0 -- -- 72
2018-08-19 04:00:00 15.3 15 Oeste 21 Oeste 0 -- -- 70
2018-08-19 03:00:00 15.6 18 Oeste 22 Oeste 0 -- -- 71
2018-08-19 02:00:00 17 14 Oeste 17 Oeste 0 -- -- 65
2018-08-19 01:00:00 19.1 6 Noroeste 11 Noroeste 0 -- -- 55
2018-08-19 00:00:00 19.3 6 Sudoeste 8 Sudoeste 0 -- -- 56
2018-08-18 23:00:00 20.1 3 Norte 10 Norte 0 -- -- 54
2018-08-18 22:00:00 20.2 9 Norte 13 Norte 0 -- -- 53
2018-08-18 21:00:00 21.2 10 Norte 17 Norte 0 -- -- 51
2018-08-18 20:00:00 23.6 5 Norte 12 Noroeste 0 -- -- 45
2018-08-18 19:00:00 22.4 6 Este 21 Nordeste 0 -- -- 47
2018-08-18 18:00:00 23.1 7 Nordeste 28 Nordeste 0 -- -- 45
2018-08-18 17:00:00 23.1 9 Nordeste 24 Norte 0 -- -- 45
2018-08-18 16:00:00 23.3 12 Nordeste 28 Nordeste 0 -- -- 44
2018-08-18 15:00:00 22.2 13 Nordeste 26 Nordeste 0 -- -- 46
2018-08-18 14:00:00 21.4 11 Norte 19 Nordeste 0 -- -- 48
2018-08-18 13:00:00 18.8 10 Oeste 21 Sudoeste 0 -- -- 52
2018-08-18 12:00:00 17.3 12 Oeste 20 Oeste 0 -- -- 56
2018-08-18 11:00:00 15.7 13 Sudoeste 25 Oeste 0 -- -- 62
2018-08-18 10:00:00 14.3 22 Oeste 30 Oeste 0 -- -- 66
2018-08-18 09:00:00 12.5 15 Oeste 20 Oeste 0 -- -- 74
2018-08-18 08:00:00 11.3 14 Oeste 27 Oeste 0 -- -- 80
2018-08-18 07:00:00 11.1 19 Oeste 27 Oeste 0 -- -- 81
2018-08-18 06:00:00 11.6 15 Oeste 21 Oeste 0 -- -- 80
2018-08-18 05:00:00 11.8 18 Oeste 23 Oeste 0 -- -- 79
2018-08-18 04:00:00 12.3 17 Oeste 28 Oeste 0 -- -- 77
2018-08-18 03:00:00 12.9 23 Oeste 35 Oeste 0 -- -- 73
2018-08-18 02:00:00 13.4 26 Oeste 39 Oeste 0 -- -- 72
2018-08-18 01:00:00 14.2 29 Oeste 50 Oeste 0 -- -- 72
2018-08-18 00:00:00 15.2 37 Oeste 53 Oeste 0 -- -- 69
2018-08-17 23:00:00 16.4 32 Noroeste 41 Oeste 0 -- -- 68
2018-08-17 22:00:00 17.8 25 Noroeste 48 Noroeste 0 -- -- 65
2018-08-17 21:00:00 19.2 29 Noroeste 45 Noroeste 0 -- -- 58
2018-08-17 20:00:00 21.4 31 Noroeste 44 Norte 0 -- -- 58
2018-08-17 19:00:00 22.9 30 Noroeste 44 Noroeste 0 -- -- 54
2018-08-17 18:00:00 25 27 Noroeste 40 Noroeste 0 -- -- 48
2018-08-17 17:00:00 25.8 25 Noroeste 40 Noroeste 0 -- -- 46
2018-08-17 16:00:00 26.1 23 Noroeste 36 Noroeste 0 -- -- 46
2018-08-17 15:00:00 25 14 Noroeste 30 Oeste 0 -- -- 50
2018-08-17 14:00:00 24.1 17 Oeste 32 Oeste 0 -- -- 52
2018-08-17 13:00:00 22.9 17 Noroeste 29 Noroeste 0 -- -- 56
2018-08-17 12:00:00 21.3 22 Noroeste 33 Oeste 0 -- -- 58
2018-08-17 11:00:00 19.6 27 Oeste 41 Oeste 0.2 -- -- 70
2018-08-17 10:00:00 17.4 32 Oeste 40 Oeste 0 -- -- 83
2018-08-17 09:00:00 16.2 29 Oeste 36 Oeste 0 -- -- 90
2018-08-17 08:00:00 16.1 21 Oeste 27 Oeste 0 -- -- 93
2018-08-17 07:00:00 16.5 14 Oeste 20 Noroeste 0 -- -- 94
2018-08-17 06:00:00 16.5 13 Oeste 19 Oeste 0 -- -- 94
2018-08-17 05:00:00 16.6 14 Noroeste 28 Sudoeste 0.2 -- -- 93
2018-08-17 04:00:00 16.9 17 Oeste 30 Oeste 0.2 -- -- 92
2018-08-17 03:00:00 17.2 19 Oeste 37 Noroeste 0 -- -- 91
2018-08-17 02:00:00 17.5 27 Noroeste 44 Noroeste 0.2 -- -- 89
2018-08-17 01:00:00 17 30 Oeste 39 Oeste 0.2 -- -- 88
2018-08-17 00:00:00 17.6 27 Oeste 49 Oeste 0 -- -- 83
2018-08-16 23:00:00 18.5 52 Oeste 77 Oeste 0.2 -- -- 76
2018-08-16 22:00:00 20.1 47 Oeste 71 Oeste 0 -- -- 59
2018-08-16 21:00:00 21.9 39 Sudoeste 51 Oeste 0 -- -- 52
2018-08-16 20:00:00 19.8 40 Oeste 76 Oeste 0 -- -- 69
2018-08-16 19:00:00 24.6 17 Sudoeste 26 Sur 0 -- -- 51
2018-08-16 18:00:00 26.1 15 Sudeste 36 Sur 0 -- -- 53
2018-08-16 17:00:00 28.4 18 Nordeste 32 Nordeste 0 -- -- 46
2018-08-16 16:00:00 29.6 11 Nordeste 26 Nordeste 0 -- -- 46
2018-08-16 15:00:00 28.7 13 Nordeste 26 Nordeste 0 -- -- 49
2018-08-16 14:00:00 27.4 12 Nordeste 23 Nordeste 0 -- -- 54
2018-08-16 13:00:00 26.1 12 Este 20 Nordeste 0 -- -- 60
2018-08-16 12:00:00 25.2 9 Este 19 Este 0 -- -- 61
2018-08-16 11:00:00 23.6 4 Este 10 Este 0 -- -- 68
2018-08-16 10:00:00 21 4 Este 13 Este 0 -- -- 79
2018-08-16 09:00:00 20.4 4 Este 12 Oeste 0 -- -- 79
2018-08-16 08:00:00 19.4 8 Oeste 13 Oeste 0 -- -- 81
2018-08-16 07:00:00 19.4 6 Sudoeste 14 Sur 0 -- -- 83
2018-08-16 06:00:00 20.8 7 Este 10 Este 0 -- -- 75
2018-08-16 05:00:00 20.2 3 Sur 8 Oeste 0 -- -- 75
2018-08-16 04:00:00 21 5 Este 10 Sudoeste 0 -- -- 74
2018-08-16 03:00:00 21.1 4 Sudoeste 17 Sudoeste 0 -- -- 77
2018-08-16 02:00:00 20.4 15 Sudoeste 18 Sudoeste 0 -- -- 81
2018-08-16 01:00:00 21.3 14 Sur 19 Sur 0 -- -- 78
2018-08-16 00:00:00 22.6 12 Sur 18 Sur 0 -- -- 72
2018-08-15 23:00:00 23.2 10 Sur 15 Sudeste 0 -- -- 68
2018-08-15 22:00:00 24.4 12 Sudeste 17 Sudeste 0 -- -- 63
2018-08-15 21:00:00 25.3 13 Este 20 Nordeste 0 -- -- 44
2018-08-15 20:00:00 26.1 14 Este 22 Nordeste 0 -- -- 44
2018-08-15 19:00:00 26.4 15 Este 24 Nordeste 0 -- -- 47
2018-08-15 18:00:00 26.3 16 Nordeste 24 Este 0 -- -- 47
2018-08-15 17:00:00 26.3 15 Nordeste 26 Nordeste 0 -- -- 47
2018-08-15 16:00:00 26.3 16 Nordeste 30 Este 0 -- -- 46
2018-08-15 15:00:00 25.5 11 Este 28 Este 0 -- -- 48
2018-08-15 14:00:00 23.8 10 Este 22 Este 0 -- -- 51
2018-08-15 13:00:00 22.7 11 Nordeste 22 Nordeste 0 -- -- 53
2018-08-15 12:00:00 21.9 6 Noroeste 17 Norte 0 -- -- 55
2018-08-15 11:00:00 19.1 4 Sudoeste 14 Oeste 0 -- -- 63
2018-08-15 10:00:00 17.2 7 Oeste 14 Oeste 0 -- -- 69
2018-08-15 09:00:00 15.4 10 Sudoeste 15 Sudoeste 0 -- -- 76
2018-08-15 08:00:00 14.3 10 Sudoeste 25 Oeste 0 -- -- 79
2018-08-15 07:00:00 13.8 22 Oeste 29 Oeste 0 -- -- 81
2018-08-15 06:00:00 13.8 20 Oeste 29 Oeste 0 -- -- 81
2018-08-15 05:00:00 14.3 23 Oeste 35 Oeste 0 -- -- 79
2018-08-15 04:00:00 14.7 27 Oeste 35 Oeste 0 -- -- 77
2018-08-15 03:00:00 15.2 22 Oeste 32 Oeste 0 -- -- 74
2018-08-15 02:00:00 15.8 20 Oeste 31 Oeste 0 -- -- 71
2018-08-15 01:00:00 16.2 19 Oeste 28 Oeste 0 -- -- 69
2018-08-15 00:00:00 17.3 22 Oeste 32 Oeste 0 -- -- 66
2018-08-14 23:00:00 18.5 24 Oeste 33 Oeste 0 -- -- 61
2018-08-14 22:00:00 19.6 21 Noroeste 33 Noroeste 0 -- -- 57
2018-08-14 21:00:00 21.4 22 Noroeste 36 Noroeste 0 -- -- 52
2018-08-14 20:00:00 23.5 27 Noroeste 39 Noroeste 0 -- -- 48
2018-08-14 19:00:00 24.8 24 Noroeste 38 Noroeste 0 -- -- 43
2018-08-14 18:00:00 25.5 27 Noroeste 40 Noroeste 0 -- -- 39
2018-08-14 17:00:00 25.5 26 Noroeste 44 Noroeste 0 -- -- 42
2018-08-14 16:00:00 25.4 27 Noroeste 44 Noroeste 0 -- -- 41
2018-08-14 15:00:00 24.4 23 Noroeste 37 Noroeste 0 -- -- 45
2018-08-14 14:00:00 23.6 24 Noroeste 46 Noroeste 0 -- -- 49
2018-08-14 13:00:00 22 23 Oeste 36 Noroeste 0 -- -- 54
2018-08-14 12:00:00 20.3 25 Noroeste 43 Oeste 0 -- -- 56
2018-08-14 11:00:00 19.1 27 Oeste 35 Noroeste 0 -- -- 64
2018-08-14 10:00:00 17.6 19 Oeste 27 Oeste 0 -- -- 73
2018-08-14 09:00:00 16.6 18 Oeste 28 Oeste 0 -- -- 77
2018-08-14 08:00:00 15.7 21 Oeste 28 Oeste 0 -- -- 81
2018-08-14 07:00:00 15.1 20 Oeste 28 Oeste 0 -- -- 83
2018-08-14 06:00:00 15.5 19 Oeste 33 Oeste 0 -- -- 81
2018-08-14 05:00:00 15.9 19 Oeste 25 Oeste 0 -- -- 78
2018-08-14 04:00:00 16.6 20 Oeste 29 Oeste 0 -- -- 75
2018-08-14 03:00:00 17.4 22 Oeste 37 Oeste 0 -- -- 71
2018-08-14 02:00:00 18.2 27 Oeste 44 Noroeste 0 -- -- 70
2018-08-14 01:00:00 19.2 31 Noroeste 50 Oeste 0 -- -- 62
2018-08-14 00:00:00 20.8 27 Oeste 45 Noroeste 0 -- -- 56
2018-08-13 23:00:00 22 30 Noroeste 47 Noroeste 0 -- -- 56
2018-08-13 22:00:00 23.9 34 Noroeste 46 Noroeste 0 -- -- 56
2018-08-13 21:00:00 26.1 14 Norte 22 Noroeste 0 -- -- 52
2018-08-13 20:00:00 26.8 9 Nordeste 20 Nordeste 0 -- -- 51
2018-08-13 19:00:00 27.1 9 Nordeste 22 Nordeste 0 -- -- 50
2018-08-13 18:00:00 27.5 13 Nordeste 25 Nordeste 0 -- -- 49
2018-08-13 17:00:00 27.4 15 Nordeste 29 Nordeste 0 -- -- 49
2018-08-13 16:00:00 26.3 14 Nordeste 28 Nordeste 0 -- -- 52
2018-08-13 15:00:00 26.7 17 Nordeste 28 Nordeste 0 -- -- 52
2018-08-13 14:00:00 25.6 15 Nordeste 27 Nordeste 0 -- -- 57
2018-08-13 13:00:00 24.5 14 Este 23 Nordeste 0 -- -- 61
2018-08-13 12:00:00 23.7 13 Nordeste 22 Nordeste 0 -- -- 64
2018-08-13 11:00:00 22.5 12 Nordeste 18 Nordeste 0 -- -- 67
2018-08-13 10:00:00 21.1 10 Noroeste 15 Norte 0 -- -- 71
2018-08-13 09:00:00 19 6 Oeste 17 Noroeste 0 -- -- 79
2018-08-13 08:00:00 18.6 13 Noroeste 19 Noroeste 0 -- -- 75
2018-08-13 07:00:00 19.8 9 Norte 11 Noroeste 0 -- -- 64
2018-08-13 06:00:00 20.6 6 Norte 12 Sudoeste 0 -- -- 58
2018-08-13 05:00:00 19.2 7 Sudoeste 12 Sudoeste 0 -- -- 68
2018-08-13 04:00:00 20.8 7 Oeste 10 Oeste 0 -- -- 60
2018-08-13 03:00:00 20.4 9 Sudoeste 22 Sur 0.2 -- -- 62
2018-08-13 02:00:00 19.4 14 Sur 26 Sur 0 -- -- 68
2018-08-13 01:00:00 19.1 12 Este 28 Este 0 -- -- 72
2018-08-13 00:00:00 21 12 Este 28 Sudoeste 0 -- -- 60
2018-08-12 23:00:00 21 27 Sudoeste 48 Sudoeste 0.2 -- -- 61
2018-08-12 22:00:00 18.9 22 Sur 29 Sudeste 0 -- -- 75
2018-08-12 21:00:00 19.3 13 Sur 45 Sur 0.8 -- -- 69
2018-08-12 20:00:00 20.2 40 Sudoeste 50 Sudoeste 0.2 -- -- 67
2018-08-12 19:00:00 22.8 13 Este 39 Sur 0 -- -- 54
2018-08-12 18:00:00 22.8 22 Sur 37 Sur 0.4 -- -- 56
2018-08-12 17:00:00 21.2 33 Sudoeste 54 Oeste 0.8 -- -- 72
2018-08-12 16:00:00 26.4 15 Sudeste 50 Este 0 -- -- 60
2018-08-12 15:00:00 30.2 36 Este 47 Este 0 -- -- 45
2018-08-12 14:00:00 30.3 21 Este 32 Este 0 -- -- 48
2018-08-12 13:00:00 29.1 18 Nordeste 27 Este 0 -- -- 52
2018-08-12 12:00:00 28.2 14 Este 24 Este 0 -- -- 53
2018-08-12 11:00:00 27 10 Este 17 Este 0 -- -- 58
2018-08-12 10:00:00 25.1 3 Nordeste 9 Oeste 0 -- -- 67
2018-08-12 09:00:00 22.6 10 Oeste 14 Oeste 0 -- -- 72
2018-08-12 08:00:00 20.9 10 Sudoeste 13 Sur 0 -- -- 77
2018-08-12 07:00:00 21.8 3 Norte 6 Nordeste 0 -- -- 73
2018-08-12 06:00:00 21.4 5 Sudoeste 13 Sur 0 -- -- 76
2018-08-12 05:00:00 21.5 8 Sudoeste 10 Sudoeste 0 -- -- 76
2018-08-12 04:00:00 23 5 Sudoeste 10 Sur 0 -- -- 69
2018-08-12 03:00:00 23.6 0 Calma 3 Oeste 0 -- -- 67
2018-08-12 02:00:00 23.5 0 Calma 17 Sudoeste 0 -- -- 67
2018-08-12 01:00:00 23 17 Sudoeste 21 Sudoeste 0 -- -- 69
2018-08-12 00:00:00 23 19 Sur 26 Sur 0 -- -- 74
2018-08-11 23:00:00 23.4 18 Sur 26 Sur 0 -- -- 73
2018-08-11 22:00:00 23.8 20 Sudoeste 26 Sudoeste 0 -- -- 72
2018-08-11 21:00:00 24.4 14 Sur 30 Sur 0 -- -- 71
2018-08-11 20:00:00 25.1 16 Sudeste 27 Sudeste 0 -- -- 68
2018-08-11 19:00:00 25.6 8 Sudeste 25 Sudeste 0 -- -- 67
2018-08-11 18:00:00 25.3 14 Sudeste 26 Sudeste 0 -- -- 68
2018-08-11 17:00:00 25.4 15 Este 31 Este 0 -- -- 66
2018-08-11 16:00:00 25.8 26 Este 37 Este 0 -- -- 62
2018-08-11 15:00:00 27.8 22 Este 37 Nordeste 0 -- -- 54
2018-08-11 14:00:00 27.8 23 Nordeste 35 Nordeste 0 -- -- 53
2018-08-11 13:00:00 27.1 20 Este 31 Este 0 -- -- 53
2018-08-11 12:00:00 26.6 12 Nordeste 22 Nordeste 0 -- -- 53
2018-08-11 11:00:00 24.7 6 Sur 13 Sur 0 -- -- 60
2018-08-11 10:00:00 21.7 5 Sur 14 Sur 0 -- -- 71
2018-08-11 09:00:00 20.4 6 Sudeste 11 Sur 0 -- -- 78
2018-08-11 08:00:00 18.3 4 Oeste 12 Oeste 0 -- -- 88
2018-08-11 07:00:00 18 8 Noroeste 19 Noroeste 0 -- -- 88
2018-08-11 06:00:00 18.6 8 Noroeste 18 Sudoeste 0 -- -- 81
2018-08-11 05:00:00 19 11 Sudoeste 15 Sudoeste 0 -- -- 79
2018-08-11 04:00:00 19.1 13 Oeste 21 Oeste 0 -- -- 79
2018-08-11 03:00:00 19.6 18 Oeste 21 Oeste 0 -- -- 79
2018-08-11 02:00:00 19.1 14 Sudoeste 19 Sur 0 -- -- 81
2018-08-11 01:00:00 20.5 12 Sur 20 Sur 0 -- -- 76
2018-08-11 00:00:00 20.8 15 Sur 22 Sur 0 -- -- 75
2018-08-10 23:00:00 21.4 17 Sur 24 Sur 0 -- -- 72
2018-08-10 22:00:00 22.4 11 Sudeste 21 Sudeste 0 -- -- 68
2018-08-10 21:00:00 23.8 12 Este 27 Nordeste 0 -- -- 62
2018-08-10 20:00:00 24.2 22 Nordeste 31 Nordeste 0 -- -- 60
2018-08-10 19:00:00 24.1 26 Nordeste 35 Nordeste 0 -- -- 59
2018-08-10 18:00:00 25.3 28 Nordeste 38 Nordeste 0 -- -- 55
2018-08-10 17:00:00 25.1 27 Nordeste 37 Nordeste 0 -- -- 53
2018-08-10 16:00:00 24.1 22 Nordeste 35 Este 0 -- -- 51
2018-08-10 15:00:00 23 13 Nordeste 27 Este 0 -- -- 50
2018-08-10 14:00:00 21.9 15 Este 29 Este 0 -- -- 52
2018-08-10 13:00:00 20.8 17 Este 26 Nordeste 0 -- -- 53
2018-08-10 12:00:00 19.5 11 Nordeste 19 Nordeste 0 -- -- 56
2018-08-10 11:00:00 19.2 9 Nordeste 14 Norte 0 -- -- 55
2018-08-10 10:00:00 16.8 5 Oeste 16 Oeste 0 -- -- 62
2018-08-10 09:00:00 15.9 14 Oeste 17 Oeste 0 -- -- 64
2018-08-10 08:00:00 15 12 Oeste 18 Oeste 0 -- -- 66
2018-08-10 07:00:00 14.9 12 Oeste 25 Oeste 0 -- -- 68
2018-08-10 06:00:00 14.7 15 Oeste 26 Oeste 0 -- -- 69
2018-08-10 05:00:00 15.2 20 Oeste 26 Oeste 0 -- -- 68
2018-08-10 04:00:00 15 17 Sudoeste 31 Oeste 0 -- -- 68
2018-08-10 03:00:00 15.2 21 Oeste 28 Oeste 0 -- -- 67
2018-08-10 02:00:00 15.6 23 Oeste 32 Oeste 0 -- -- 63
2018-08-10 01:00:00 16.3 24 Oeste 34 Oeste 0 -- -- 63
2018-08-10 00:00:00 17.6 18 Oeste 41 Oeste 0 -- -- 56
2018-08-09 23:00:00 18.5 30 Noroeste 37 Noroeste 0 -- -- 54
2018-08-09 22:00:00 19.4 25 Noroeste 35 Noroeste 0 -- -- 56
2018-08-09 21:00:00 20.8 26 Noroeste 35 Noroeste 0 -- -- 53
2018-08-09 20:00:00 22.3 26 Noroeste 39 Noroeste 0 -- -- 50
2018-08-09 19:00:00 24.5 24 Noroeste 36 Noroeste 0 -- -- 46
2018-08-09 18:00:00 25.2 23 Noroeste 39 Noroeste 0 -- -- 44
2018-08-09 17:00:00 25.5 27 Noroeste 40 Noroeste 0 -- -- 45
2018-08-09 16:00:00 25.3 24 Norte 39 Noroeste 0 -- -- 47
2018-08-09 15:00:00 25.2 24 Norte 39 Noroeste 0 -- -- 48
2018-08-09 14:00:00 24.2 26 Noroeste 41 Noroeste 0 -- -- 52
2018-08-09 13:00:00 23.1 30 Noroeste 41 Noroeste 0 -- -- 56
2018-08-09 12:00:00 23 26 Noroeste 39 Noroeste 0 -- -- 61
2018-08-09 11:00:00 23.3 22 Noroeste 36 Noroeste 0 -- -- 68
2018-08-09 10:00:00 22.2 24 Norte 37 Noroeste 0 -- -- 70
2018-08-09 09:00:00 23.1 11 Norte 22 Oeste 0 -- -- 58
2018-08-09 08:00:00 22.7 20 Oeste 26 Noroeste 0 -- -- 55
2018-08-09 07:00:00 22.9 12 Sudoeste 31 Sur 0 -- -- 55
2018-08-09 06:00:00 23.5 15 Sudoeste 28 Sudoeste 0 -- -- 53
2018-08-09 05:00:00 23.5 8 Sur 18 Sudoeste 0 -- -- 49
2018-08-09 04:00:00 24 6 Nordeste 14 Sudeste 0 -- -- 46
2018-08-09 03:00:00 24.3 11 Sudoeste 33 Sur 0 -- -- 43
2018-08-09 02:00:00 22.6 19 Sur 28 Sur 0 -- -- 49
2018-08-09 01:00:00 22.6 11 Sudeste 25 Este 0 -- -- 54
2018-08-09 00:00:00 22.8 22 Este 40 Sudoeste 0 -- -- 53
2018-08-08 23:00:00 24.8 18 Sur 28 Sur 0 -- -- 43
2018-08-08 22:00:00 24.9 17 Sur 40 Sudoeste 0 -- -- 43
2018-08-08 21:00:00 24.8 30 Sur 54 Sur 0 -- -- 45
2018-08-08 20:00:00 23.7 26 Sur 53 Este 0 -- -- 71
2018-08-08 19:00:00 23.6 24 Este 54 Nordeste 0 -- -- 61
2018-08-08 18:00:00 22.4 24 Nordeste 47 Noroeste 0 -- -- 72
2018-08-08 17:00:00 29.5 22 Oeste 50 Este 0 -- -- 47
2018-08-08 16:00:00 32.3 25 Sudeste 46 Este 0 -- -- 37
2018-08-08 15:00:00 31.1 17 Sudeste 41 Este 0 -- -- 39
2018-08-08 14:00:00 28.5 24 Este 39 Este 0 -- -- 50
2018-08-08 13:00:00 26.4 21 Este 28 Este 0 -- -- 56
2018-08-08 12:00:00 24.8 15 Este 23 Este 0 -- -- 61
2018-08-08 11:00:00 22.3 13 Este 22 Nordeste 0 -- -- 68
2018-08-08 10:00:00 21.2 11 Nordeste 14 Nordeste 0 -- -- 72
2018-08-08 09:00:00 19.2 2 Oeste 9 Oeste 0 -- -- 78
2018-08-08 08:00:00 17.5 8 Oeste 15 Sudoeste 0 -- -- 83
2018-08-08 07:00:00 17.6 10 Oeste 14 Oeste 0 -- -- 83
2018-08-08 06:00:00 18.4 10 Oeste 18 Oeste 0 -- -- 79
2018-08-08 05:00:00 18.5 10 Oeste 14 Oeste 0 -- -- 81
2018-08-08 04:00:00 19.4 6 Oeste 13 Noroeste 0 -- -- 79
2018-08-08 03:00:00 19.4 8 Oeste 14 Oeste 0 -- -- 76
2018-08-08 02:00:00 19.9 14 Oeste 25 Oeste 0 -- -- 75
2018-08-08 01:00:00 20.7 18 Oeste 33 Oeste 0 -- -- 74
2018-08-08 00:00:00 23.1 19 Sur 28 Sur 0 -- -- 67
2018-08-07 23:00:00 25.5 15 Este 23 Este 0 -- -- 43
2018-08-07 22:00:00 27 8 Sudoeste 33 Sudoeste 0 -- -- 32
2018-08-07 21:00:00 27.6 12 Sudoeste 39 Sudoeste 0 -- -- 31
2018-08-07 20:00:00 27.3 35 Sudoeste 56 Sudoeste 0 -- -- 32
2018-08-07 19:00:00 27.5 27 Sudoeste 44 Sudoeste 0 -- -- 32
2018-08-07 18:00:00 27.8 22 Sur 63 Sur 0 -- -- 28
2018-08-07 17:00:00 26.2 24 Sudoeste 65 Sudoeste 0.2 -- -- 36
2018-08-07 16:00:00 27.8 47 Sudoeste 73 Sudoeste 0 -- -- 46
2018-08-07 15:00:00 32.2 26 Este 39 Este 0 -- -- 35
2018-08-07 14:00:00 33.6 25 Este 36 Este 0 -- -- 33
2018-08-07 13:00:00 32.1 19 Este 34 Este 0 -- -- 33
2018-08-07 12:00:00 31.7 19 Este 30 Este 0 -- -- 29
2018-08-07 11:00:00 30.7 6 Sudeste 15 Este 0 -- -- 32
2018-08-07 10:00:00 28 12 Este 16 Este 0 -- -- 34
2018-08-07 09:00:00 23.9 12 Sudoeste 13 Sudoeste 0 -- -- 43
2018-08-07 08:00:00 22.9 12 Sudoeste 17 Oeste 0 -- -- 45
2018-08-07 07:00:00 22.3 12 Sudoeste 14 Sur 0 -- -- 52
2018-08-07 06:00:00 22.8 8 Sudoeste 10 Sudoeste 0 -- -- 52
2018-08-07 05:00:00 22.4 7 Sur 17 Sur 0 -- -- 56
2018-08-07 04:00:00 22.5 18 Sudoeste 22 Sudoeste 0 -- -- 58
2018-08-07 03:00:00 24.2 17 Sudoeste 21 Sudoeste 0 -- -- 54
2018-08-07 02:00:00 24.8 16 Sudoeste 23 Oeste 0 -- -- 57
2018-08-07 01:00:00 25.6 16 Oeste 22 Sudoeste 0 -- -- 58
2018-08-07 00:00:00 25.2 16 Sudoeste 24 Sur 0 -- -- 61
2018-08-06 23:00:00 26.4 18 Sur 26 Sur 0 -- -- 57
2018-08-06 22:00:00 27.2 18 Sur 32 Sur 0 -- -- 54
2018-08-06 21:00:00 28.8 19 Sur 30 Sudeste 0 -- -- 50
2018-08-06 20:00:00 31 16 Sur 27 Sur 0 -- -- 44
2018-08-06 19:00:00 31.5 17 Este 32 Este 0 -- -- 44
2018-08-06 18:00:00 32.3 11 Este 36 Este 0 -- -- 41
2018-08-06 17:00:00 32.6 14 Este 49 Este 0 -- -- 40
2018-08-06 16:00:00 33.4 20 Nordeste 29 Nordeste 0 -- -- 35
2018-08-06 15:00:00 32.8 16 Nordeste 30 Nordeste 0 -- -- 37
2018-08-06 14:00:00 32.2 18 Nordeste 32 Nordeste 0 -- -- 39
2018-08-06 13:00:00 31.6 17 Nordeste 28 Este 0 -- -- 40
2018-08-06 12:00:00 30.5 9 Este 17 Nordeste 0 -- -- 40
2018-08-06 11:00:00 29.1 8 Nordeste 15 Nordeste 0 -- -- 44
2018-08-06 10:00:00 26.5 4 Oeste 11 Norte 0 -- -- 50
2018-08-06 09:00:00 24.2 3 Oeste 17 Oeste 0 -- -- 54
2018-08-06 08:00:00 22.4 13 Oeste 20 Oeste 0 -- -- 58
2018-08-06 07:00:00 22.1 18 Oeste 24 Oeste 0 -- -- 59
2018-08-06 06:00:00 22.9 18 Oeste 22 Oeste 0 -- -- 58
2018-08-06 05:00:00 23.1 22 Oeste 27 Oeste 0 -- -- 57
2018-08-06 04:00:00 24.1 12 Oeste 21 Oeste 0 -- -- 50
2018-08-06 03:00:00 24.8 21 Oeste 30 Oeste 0 -- -- 49
2018-08-06 02:00:00 26.1 24 Oeste 30 Oeste 0 -- -- 48
2018-08-06 01:00:00 26.8 21 Oeste 27 Oeste 0 -- -- 47
2018-08-06 00:00:00 27.3 11 Sudoeste 19 Sur 0 -- -- 46
2018-08-05 23:00:00 28.4 7 Sudoeste 15 Sur 0 -- -- 44
2018-08-05 22:00:00 29.7 11 Sur 19 Sudeste 0 -- -- 41
2018-08-05 21:00:00 30.6 10 Este 23 Este 0 -- -- 33
2018-08-05 20:00:00 31.7 18 Nordeste 27 Nordeste 0 -- -- 32
2018-08-05 19:00:00 32.1 16 Nordeste 29 Nordeste 0 -- -- 31
2018-08-05 18:00:00 33.3 10 Norte 26 Nordeste 0 -- -- 28
2018-08-05 17:00:00 33 16 Norte 30 Norte 0 -- -- 30
2018-08-05 16:00:00 33.1 13 Nordeste 24 Norte 0 -- -- 31
2018-08-05 15:00:00 31.8 14 Nordeste 24 Nordeste 0 -- -- 33
2018-08-05 14:00:00 30.8 12 Nordeste 21 Nordeste 0 -- -- 34
2018-08-05 13:00:00 29.6 14 Este 23 Nordeste 0 -- -- 36
2018-08-05 12:00:00 29.2 10 Nordeste 20 Nordeste 0 -- -- 38
2018-08-05 11:00:00 26.7 3 Oeste 13 Sudoeste 0 -- -- 42
2018-08-05 10:00:00 24.3 10 Oeste 15 Oeste 0 -- -- 49
2018-08-05 09:00:00 21.7 10 Sudoeste 15 Oeste 0 -- -- 55
2018-08-05 08:00:00 20.4 12 Oeste 20 Oeste 0 -- -- 57
2018-08-05 07:00:00 20.1 14 Oeste 26 Oeste 0 -- -- 58
2018-08-05 06:00:00 20.6 24 Oeste 27 Oeste 0 -- -- 57
2018-08-05 05:00:00 20.8 23 Oeste 27 Oeste 0 -- -- 57
2018-08-05 04:00:00 21.8 22 Oeste 29 Oeste 0 -- -- 54
2018-08-05 03:00:00 22.6 18 Oeste 24 Oeste 0 -- -- 53
2018-08-05 02:00:00 23.5 20 Oeste 26 Oeste 0 -- -- 51
2018-08-05 01:00:00 24.1 17 Oeste 28 Oeste 0 -- -- 49
2018-08-05 00:00:00 25.5 24 Oeste 37 Noroeste 0 -- -- 45
2018-08-04 23:00:00 27.3 24 Noroeste 31 Noroeste 0 -- -- 37
2018-08-04 22:00:00 29.1 21 Noroeste 28 Noroeste 0 -- -- 34
2018-08-04 21:00:00 31 10 Noroeste 21 Noroeste 0 -- -- 34
2018-08-04 20:00:00 32.7 12 Noroeste 24 Noroeste 0 -- -- 31
2018-08-04 19:00:00 32.5 9 Norte 29 Noroeste 0 -- -- 29
2018-08-04 18:00:00 32.9 13 Nordeste 26 Noroeste 0 -- -- 30
2018-08-04 17:00:00 32.6 14 Nordeste 29 Nordeste 0 -- -- 31
2018-08-04 16:00:00 32.8 16 Nordeste 33 Nordeste 0 -- -- 36
2018-08-04 15:00:00 32.6 10 Norte 31 Noroeste 0 -- -- 37
2018-08-04 14:00:00 32.2 14 Norte 29 Noroeste 0 -- -- 40
2018-08-04 13:00:00 30.4 12 Norte 30 Noroeste 0 -- -- 43
2018-08-04 12:00:00 29.8 11 Norte 24 Noroeste 0 -- -- 43
2018-08-04 11:00:00 26.8 13 Oeste 29 Oeste 0 -- -- 50
2018-08-04 10:00:00 24.6 21 Oeste 34 Oeste 0 -- -- 51
2018-08-04 09:00:00 22.6 26 Oeste 35 Oeste 0 -- -- 54
2018-08-04 08:00:00 21.3 27 Oeste 39 Oeste 0 -- -- 56
2018-08-04 07:00:00 21.2 30 Oeste 37 Oeste 0 -- -- 55
2018-08-04 06:00:00 21.6 24 Oeste 33 Oeste 0 -- -- 54
2018-08-04 05:00:00 22.1 24 Oeste 41 Oeste 0 -- -- 52
2018-08-04 04:00:00 22.7 31 Oeste 39 Oeste 0 -- -- 49
2018-08-04 03:00:00 22.9 26 Oeste 32 Oeste 0 -- -- 48
2018-08-04 02:00:00 23.9 23 Oeste 27 Oeste 0 -- -- 42
2018-08-04 01:00:00 25.8 17 Oeste 30 Noroeste 0 -- -- 39
2018-08-04 00:00:00 27.4 20 Noroeste 29 Oeste 0 -- -- 37
2018-08-03 23:00:00 29.5 24 Noroeste 32 Noroeste 0 -- -- 30
2018-08-03 22:00:00 30.7 15 Noroeste 18 Noroeste 0 -- -- 26
2018-08-03 21:00:00 32.3 9 Norte 18 Noroeste 0 -- -- 29
2018-08-03 20:00:00 33.5 10 Noroeste 20 Nordeste 0 -- -- 28
2018-08-03 19:00:00 33.1 12 Nordeste 24 Norte 0 -- -- 28
2018-08-03 18:00:00 34.6 17 Noroeste 29 Norte 0 -- -- 27
2018-08-03 17:00:00 33.8 13 Norte 30 Norte 0 -- -- 28
2018-08-03 16:00:00 33.3 12 Norte 32 Norte 0 -- -- 33
2018-08-03 15:00:00 33 20 Noroeste 32 Noroeste 0 -- -- 33
2018-08-03 14:00:00 33.2 19 Noroeste 34 Norte 0 -- -- 37
2018-08-03 13:00:00 32.3 15 Norte 30 Noroeste 0 -- -- 37
2018-08-03 12:00:00 30.4 19 Noroeste 30 Noroeste 0 -- -- 42
2018-08-03 11:00:00 29 11 Norte 22 Norte 0 -- -- 45
2018-08-03 10:00:00 26.3 12 Oeste 18 Oeste 0 -- -- 52
2018-08-03 09:00:00 24.7 13 Oeste 20 Oeste 0 -- -- 59
2018-08-03 08:00:00 23.4 13 Oeste 17 Oeste 0 -- -- 62
2018-08-03 07:00:00 23.4 13 Oeste 18 Noroeste 0 -- -- 61
2018-08-03 06:00:00 24.1 18 Oeste 25 Oeste 0 -- -- 52
2018-08-03 05:00:00 24.1 23 Oeste 26 Oeste 0 -- -- 48
2018-08-03 04:00:00 24.8 21 Oeste 24 Oeste 0 -- -- 45
2018-08-03 03:00:00 25.6 18 Oeste 24 Oeste 0 -- -- 42
2018-08-03 02:00:00 26.2 21 Oeste 26 Oeste 0 -- -- 40
2018-08-03 01:00:00 27 22 Oeste 27 Oeste 0 -- -- 42
2018-08-03 00:00:00 27.6 21 Oeste 24 Oeste 0 -- -- 43
2018-08-02 23:00:00 28.6 10 Sudoeste 17 Sur 0 -- -- 42
2018-08-02 22:00:00 30 14 Sur 24 Sudeste 0 -- -- 40
2018-08-02 21:00:00 31.8 13 Este 18 Este 0 -- -- 30
2018-08-02 20:00:00 32.8 11 Nordeste 24 Nordeste 0 -- -- 26
2018-08-02 19:00:00 33.3 15 Nordeste 29 Nordeste 0 -- -- 28
2018-08-02 18:00:00 33.6 21 Nordeste 30 Nordeste 0 -- -- 28
2018-08-02 17:00:00 33.9 17 Nordeste 28 Nordeste 0 -- -- 29
2018-08-02 16:00:00 33.9 10 Norte 29 Nordeste 0 -- -- 28
2018-08-02 15:00:00 32.9 17 Nordeste 28 Nordeste 0 -- -- 33
2018-08-02 14:00:00 31.3 13 Nordeste 26 Nordeste 0 -- -- 40
2018-08-02 13:00:00 30.4 14 Nordeste 26 Nordeste 0 -- -- 46
2018-08-02 12:00:00 30 10 Este 20 Este 0 -- -- 45
2018-08-02 11:00:00 26.9 4 Oeste 10 Sudoeste 0 -- -- 51
2018-08-02 10:00:00 24.8 4 Sudoeste 9 Oeste 0 -- -- 60
2018-08-02 09:00:00 22.6 6 Oeste 15 Oeste 0 -- -- 69
2018-08-02 08:00:00 20.9 14 Oeste 20 Oeste 0 -- -- 73
2018-08-02 07:00:00 21 14 Oeste 19 Oeste 0 -- -- 70
2018-08-02 06:00:00 21.7 7 Oeste 11 Sudoeste 0 -- -- 65
2018-08-02 05:00:00 22.1 6 Sudoeste 8 Sudoeste 0 -- -- 59
2018-08-02 04:00:00 22.7 7 Oeste 27 Noroeste 0 -- -- 58
2018-08-02 03:00:00 25.1 12 Noroeste 28 Oeste 0 -- -- 48
2018-08-02 02:00:00 26.7 17 Oeste 21 Oeste 0 -- -- 39
2018-08-02 01:00:00 25.1 15 Sudoeste 21 Sur 0 -- -- 49
2018-08-02 00:00:00 26.6 18 Sur 22 Sur 0 -- -- 45
2018-08-01 23:00:00 28.2 16 Sur 21 Sur 0 -- -- 41
2018-08-01 22:00:00 28.8 12 Sur 27 Sur 0 -- -- 39
2018-08-01 21:00:00 30.2 15 Sudeste 29 Sudeste 0 -- -- 39
2018-08-01 20:00:00 32.1 16 Sudeste 28 Nordeste 0 -- -- 36
2018-08-01 19:00:00 32.7 23 Nordeste 35 Este 0 -- -- 31
2018-08-01 18:00:00 32.6 22 Este 37 Este 0 -- -- 35
2018-08-01 17:00:00 32.2 24 Este 38 Nordeste 0 -- -- 38
2018-08-01 16:00:00 31.6 23 Este 35 Este 0 -- -- 39
2018-08-01 15:00:00 30.6 16 Nordeste 27 Nordeste 0 -- -- 42
2018-08-01 14:00:00 29.3 15 Nordeste 24 Nordeste 0 -- -- 44
2018-08-01 13:00:00 27.3 11 Este 24 Este 0 -- -- 49
2018-08-01 12:00:00 26.3 9 Este 21 Nordeste 0 -- -- 54
2018-08-01 11:00:00 25.4 6 Nordeste 12 Nordeste 0 -- -- 57
2018-08-01 10:00:00 23.2 5 Norte 11 Oeste 0 -- -- 65
2018-08-01 09:00:00 20.5 6 Oeste 12 Oeste 0 -- -- 74
2018-08-01 08:00:00 18.8 10 Oeste 17 Oeste 0 -- -- 79
2018-08-01 07:00:00 18.7 12 Oeste 17 Oeste 0 -- -- 78
2018-08-01 06:00:00 19.1 14 Oeste 20 Oeste 0 -- -- 77
2018-08-01 05:00:00 19.9 15 Oeste 20 Oeste 0 -- -- 72
2018-08-01 04:00:00 20.6 15 Oeste 23 Oeste 0 -- -- 69
2018-08-01 03:00:00 21.7 18 Oeste 22 Oeste 0 -- -- 65
2018-08-01 02:00:00 23.3 15 Oeste 26 Norte 0 -- -- 59
2018-08-01 01:00:00 24.8 14 Norte 28 Noroeste 0 -- -- 55
2018-08-01 00:00:00 25.9 9 Sudoeste 15 Sur 0 -- -- 50
2018-07-31 23:00:00 27.3 13 Sur 21 Sudeste 0 -- -- 50
2018-07-31 22:00:00 28.2 12 Sudeste 21 Sudeste 0 -- -- 49
2018-07-31 21:00:00 29.9 9 Sudeste 31 Este 0 -- -- 45
2018-07-31 20:00:00 31.5 15 Este 33 Este 0 -- -- 29
2018-07-31 19:00:00 31.6 19 Este 31 Este 0 -- -- 29
2018-07-31 18:00:00 31.7 15 Nordeste 31 Este 0 -- -- 31
2018-07-31 17:00:00 31.5 15 Nordeste 27 Nordeste 0 -- -- 34
2018-07-31 16:00:00 31.7 13 Nordeste 28 Este 0 -- -- 36
2018-07-31 15:00:00 30.6 16 Nordeste 30 Nordeste 0 -- -- 42
2018-07-31 14:00:00 30.5 13 Norte 27 Nordeste 0 -- -- 44
2018-07-31 13:00:00 29.2 10 Noroeste 21 Noroeste 0 -- -- 48
2018-07-31 12:00:00 28.2 10 Norte 24 Noroeste 0 -- -- 52
2018-07-31 11:00:00 26.8 15 Norte 28 Norte 0 -- -- 56
2018-07-31 10:00:00 24.2 13 Oeste 22 Oeste 0 -- -- 64
2018-07-31 09:00:00 22 18 Oeste 24 Oeste 0 -- -- 70
2018-07-31 08:00:00 20.3 17 Oeste 27 Oeste 0 -- -- 74
2018-07-31 07:00:00 20.9 19 Oeste 25 Oeste 0 -- -- 70
2018-07-31 06:00:00 21.2 22 Oeste 26 Oeste 0 -- -- 73
2018-07-31 05:00:00 22.2 6 Oeste 17 Oeste 0 -- -- 68
2018-07-31 04:00:00 24.4 5 Noroeste 21 Oeste 0 -- -- 51
2018-07-31 03:00:00 25.2 17 Oeste 25 Oeste 0 -- -- 49
2018-07-31 02:00:00 24.5 16 Sudoeste 22 Sudoeste 0 -- -- 59
2018-07-31 01:00:00 24 16 Sur 22 Sur 0 -- -- 69
2018-07-31 00:00:00 25 18 Sur 25 Sudeste 0 -- -- 65
2018-07-30 23:00:00 25.7 19 Sur 27 Sudeste 0 -- -- 62
2018-07-30 22:00:00 26.8 15 Sudeste 23 Sur 0 -- -- 59
2018-07-30 21:00:00 28.3 10 Sudeste 30 Sudeste 0 -- -- 54
2018-07-30 20:00:00 29.8 18 Este 33 Este 0 -- -- 49
2018-07-30 19:00:00 31.3 31 Nordeste 38 Nordeste 0 -- -- 39
2018-07-30 18:00:00 32 18 Nordeste 33 Este 0 -- -- 36
2018-07-30 17:00:00 31.4 24 Este 36 Este 0 -- -- 38
2018-07-30 16:00:00 31.1 18 Este 30 Este 0 -- -- 40
2018-07-30 15:00:00 30.7 18 Nordeste 28 Nordeste 0 -- -- 41
2018-07-30 14:00:00 29.1 18 Nordeste 28 Este 0 -- -- 47
2018-07-30 13:00:00 28.4 12 Nordeste 23 Nordeste 0 -- -- 50
2018-07-30 12:00:00 27.4 9 Nordeste 22 Nordeste 0 -- -- 51
2018-07-30 11:00:00 27.1 12 Nordeste 20 Nordeste 0 -- -- 53
2018-07-30 10:00:00 24.3 6 Oeste 13 Oeste 0 -- -- 59
2018-07-30 09:00:00 22.1 10 Oeste 16 Oeste 0 -- -- 65
2018-07-30 08:00:00 20.3 13 Oeste 15 Oeste 0 -- -- 70
2018-07-30 07:00:00 20.3 13 Oeste 19 Oeste 0 -- -- 68
2018-07-30 06:00:00 21 16 Oeste 20 Oeste 0 -- -- 60
2018-07-30 05:00:00 22.3 14 Oeste 19 Oeste 0 -- -- 48
2018-07-30 04:00:00 23.2 18 Oeste 25 Oeste 0 -- -- 45
2018-07-30 03:00:00 23.8 17 Oeste 23 Oeste 0 -- -- 45
2018-07-30 02:00:00 24.7 14 Oeste 19 Oeste 0 -- -- 56
2018-07-30 01:00:00 25.7 11 Sur 14 Sur 0 -- -- 62
2018-07-30 00:00:00 26.2 8 Sudoeste 12 Sur 0 -- -- 61
2018-07-29 23:00:00 27.5 10 Sur 14 Sudeste 0 -- -- 59
2018-07-29 22:00:00 28.6 10 Sudeste 24 Nordeste 0 -- -- 45
2018-07-29 21:00:00 29.9 14 Nordeste 25 Nordeste 0 -- -- 30
2018-07-29 20:00:00 30.9 19 Nordeste 28 Nordeste 0 -- -- 30
2018-07-29 19:00:00 31.3 19 Este 31 Este 0 -- -- 31
2018-07-29 18:00:00 31.2 19 Nordeste 33 Nordeste 0 -- -- 31
2018-07-29 17:00:00 31.7 15 Nordeste 40 Nordeste 0 -- -- 31
2018-07-29 16:00:00 31.7 14 Nordeste 27 Nordeste 0 -- -- 32
2018-07-29 15:00:00 30.7 19 Nordeste 30 Nordeste 0 -- -- 33
2018-07-29 14:00:00 30.6 14 Nordeste 26 Nordeste 0 -- -- 36
2018-07-29 13:00:00 29.4 12 Nordeste 28 Este 0 -- -- 42
2018-07-29 12:00:00 27.9 13 Nordeste 22 Nordeste 0 -- -- 47
2018-07-29 11:00:00 26 13 Nordeste 19 Nordeste 0 -- -- 58
2018-07-29 10:00:00 24.1 9 Este 15 Nordeste 0 -- -- 57
2018-07-29 09:00:00 23 5 Nordeste 8 Nordeste 0 -- -- 58
2018-07-29 08:00:00 20.4 0 Calma 12 Oeste 0 -- -- 60
2018-07-29 07:00:00 19.5 9 Oeste 10 Oeste 0 -- -- 65
2018-07-29 06:00:00 20.1 4 Oeste 13 Oeste 0 -- -- 69
2018-07-29 05:00:00 20.5 10 Oeste 14 Oeste 0 -- -- 66
2018-07-29 04:00:00 21.9 6 Noroeste 8 Oeste 0 -- -- 58
2018-07-29 03:00:00 23.2 4 Noroeste 8 Nordeste 0 -- -- 55
2018-07-29 02:00:00 23.9 3 Este 10 Noroeste 0 -- -- 54
2018-07-29 01:00:00 24.4 8 Noroeste 17 Noroeste 0 -- -- 53
2018-07-29 00:00:00 24.7 7 Oeste 17 Sur 0 -- -- 57
2018-07-28 23:00:00 26.2 13 Sur 19 Sur 0 -- -- 54
2018-07-28 22:00:00 27.7 5 Sur 24 Este 0 -- -- 47
2018-07-28 21:00:00 28.8 18 Nordeste 28 Nordeste 0 -- -- 35
2018-07-28 20:00:00 29.7 17 Este 26 Nordeste 0 -- -- 35
2018-07-28 19:00:00 29.8 14 Nordeste 31 Nordeste 0 -- -- 36
2018-07-28 18:00:00 30.1 18 Nordeste 29 Este 0 -- -- 36
2018-07-28 17:00:00 29.6 14 Nordeste 31 Nordeste 0 -- -- 39
2018-07-28 16:00:00 29.4 21 Nordeste 34 Nordeste 0 -- -- 41
2018-07-28 15:00:00 29.2 21 Nordeste 35 Nordeste 0 -- -- 43
2018-07-28 14:00:00 29.7 17 Norte 28 Norte 0 -- -- 41
2018-07-28 13:00:00 28.5 17 Norte 28 Nordeste 0 -- -- 46
2018-07-28 12:00:00 27.5 9 Norte 23 Noroeste 0 -- -- 51
2018-07-28 11:00:00 25 10 Oeste 19 Oeste 0 -- -- 52
2018-07-28 10:00:00 22.9 9 Oeste 15 Noroeste 0 -- -- 65
2018-07-28 09:00:00 20.9 9 Oeste 14 Oeste 0 -- -- 75
2018-07-28 08:00:00 19.5 11 Oeste 14 Oeste 0 -- -- 76
2018-07-28 07:00:00 19.9 11 Oeste 13 Oeste 0 -- -- 66
2018-07-28 06:00:00 20.6 6 Sudoeste 29 Noroeste 0 -- -- 67
2018-07-28 05:00:00 21.2 19 Noroeste 28 Noroeste 0 -- -- 66
2018-07-28 04:00:00 24.6 14 Oeste 39 Oeste 0 -- -- 45
2018-07-28 03:00:00 25.8 31 Sudoeste 40 Oeste 0 -- -- 41
2018-07-28 02:00:00 26.3 31 Sudoeste 45 Oeste 0 -- -- 39
2018-07-28 01:00:00 26.9 29 Sudoeste 40 Sudoeste 0 -- -- 37
2018-07-28 00:00:00 26.4 17 Sur 27 Sudoeste 0 -- -- 42
2018-07-27 23:00:00 27.3 19 Sur 26 Sur 0 -- -- 41
2018-07-27 22:00:00 28.5 17 Sudoeste 30 Sur 0 -- -- 38
2018-07-27 21:00:00 30.1 17 Sur 35 Sur 0 -- -- 34
2018-07-27 20:00:00 31.1 16 Sudeste 42 Sudeste 0 -- -- 33
2018-07-27 19:00:00 31.4 17 Este 48 Este 0 -- -- 32
2018-07-27 18:00:00 32.3 30 Este 41 Este 0 -- -- 33
2018-07-27 17:00:00 32.5 23 Este 42 Este 0 -- -- 33
2018-07-27 16:00:00 31.7 28 Este 39 Este 0 -- -- 39
2018-07-27 15:00:00 30.5 23 Este 34 Nordeste 0 -- -- 43
2018-07-27 14:00:00 29.8 19 Nordeste 26 Este 0 -- -- 41
2018-07-27 13:00:00 27.5 10 Nordeste 16 Este 0 -- -- 46
2018-07-27 12:00:00 26.4 9 Nordeste 18 Este 0 -- -- 56
2018-07-27 11:00:00 25.1 9 Nordeste 21 Noroeste 0 -- -- 65
2018-07-27 10:00:00 22.6 3 Sudoeste 9 Sur 0 -- -- 71
2018-07-27 09:00:00 21.8 4 Sur 9 Este 0 -- -- 75
2018-07-27 08:00:00 20.5 6 Este 11 Este 0 -- -- 80
2018-07-27 07:00:00 19.8 5 Nordeste 15 Oeste 0 -- -- 81
2018-07-27 06:00:00 20.2 13 Oeste 20 Oeste 0 -- -- 77
2018-07-27 05:00:00 20.6 15 Oeste 20 Oeste 0 -- -- 78
2018-07-27 04:00:00 21.1 10 Noroeste 17 Noroeste 0 -- -- 76
2018-07-27 03:00:00 22.7 12 Noroeste 26 Noroeste 0 -- -- 65
2018-07-27 02:00:00 24.3 14 Oeste 30 Sudoeste 0 -- -- 57
2018-07-27 01:00:00 25.1 17 Sudoeste 24 Sudoeste 0 -- -- 49
2018-07-27 00:00:00 25.4 5 Sur 26 Sudeste 0 -- -- 51
2018-07-26 23:00:00 26.4 18 Sudeste 29 Sur 0 -- -- 49
2018-07-26 22:00:00 26.5 10 Este 27 Este 0 -- -- 53
2018-07-26 21:00:00 28.3 23 Este 34 Este 0 -- -- 50
2018-07-26 20:00:00 29.7 27 Este 45 Este 0 -- -- 48
2018-07-26 19:00:00 31.8 30 Este 47 Este 0 -- -- 40
2018-07-26 18:00:00 32.6 17 Este 35 Este 0 -- -- 34
2018-07-26 17:00:00 32.6 17 Este 33 Nordeste 0 -- -- 31
2018-07-26 16:00:00 31.9 20 Este 31 Nordeste 0 -- -- 35
2018-07-26 15:00:00 31 17 Este 30 Nordeste 0 -- -- 43
2018-07-26 14:00:00 29.9 14 Nordeste 23 Nordeste 0 -- -- 49
2018-07-26 13:00:00 28.7 12 Este 23 Este 0 -- -- 54
2018-07-26 12:00:00 27.4 13 Nordeste 19 Nordeste 0 -- -- 60
2018-07-26 11:00:00 26 11 Nordeste 18 Nordeste 0 -- -- 65
2018-07-26 10:00:00 24.6 8 Este 11 Nordeste 0 -- -- 70
2018-07-26 09:00:00 23.4 3 Sudeste 8 Sur 0 -- -- 66
2018-07-26 08:00:00 21.8 0 Calma 6 Oeste 0 -- -- 69
2018-07-26 07:00:00 21.6 4 Sur 9 Sur 0 -- -- 63
2018-07-26 06:00:00 22.1 7 Sur 10 Sur 0 -- -- 65
2018-07-26 05:00:00 22.3 3 Sudeste 9 Sur 0 -- -- 74
2018-07-26 04:00:00 22.8 3 Sudoeste 7 Sudoeste 0 -- -- 70
2018-07-26 03:00:00 23.2 6 Sur 15 Sur 0 -- -- 70
2018-07-26 02:00:00 23 7 Oeste 18 Sur 0 -- -- 73
2018-07-26 01:00:00 23.9 14 Sur 21 Sur 0 -- -- 70
2018-07-26 00:00:00 24.1 18 Sur 24 Sur 0 -- -- 72
2018-07-25 23:00:00 24.5 17 Sur 20 Sur 0 -- -- 68
2018-07-25 22:00:00 25.4 17 Sur 36 Sur 0 -- -- 58
2018-07-25 21:00:00 28.2 16 Sudeste 30 Este 0 -- -- 55
2018-07-25 20:00:00 29.7 18 Este 32 Este 0 -- -- 50
2018-07-25 19:00:00 30.3 18 Este 27 Este 0 -- -- 39
2018-07-25 18:00:00 30.3 16 Nordeste 28 Nordeste 0 -- -- 39
2018-07-25 17:00:00 29.7 15 Este 27 Nordeste 0 -- -- 45
2018-07-25 16:00:00 29.6 15 Este 29 Este 0 -- -- 48
2018-07-25 15:00:00 28.4 14 Nordeste 26 Nordeste 0 -- -- 52
2018-07-25 14:00:00 27.6 10 Nordeste 24 Nordeste 0 -- -- 54
2018-07-25 13:00:00 25.7 12 Este 21 Nordeste 0 -- -- 59
2018-07-25 12:00:00 25.7 14 Nordeste 21 Nordeste 0 -- -- 59
2018-07-25 11:00:00 24.2 7 Norte 14 Nordeste 0 -- -- 63
2018-07-25 10:00:00 22.2 10 Noroeste 19 Oeste 0 -- -- 68
2018-07-25 09:00:00 20.2 18 Oeste 27 Oeste 0 -- -- 75
2018-07-25 08:00:00 19 23 Oeste 28 Oeste 0 -- -- 79
2018-07-25 07:00:00 19 15 Oeste 19 Oeste 0 -- -- 82
2018-07-25 06:00:00 19.2 15 Oeste 22 Oeste 0 -- -- 90
2018-07-25 05:00:00 19.6 15 Oeste 26 Noroeste 0 -- -- 91
2018-07-25 04:00:00 20.4 20 Oeste 25 Oeste 0 -- -- 88
2018-07-25 03:00:00 20.8 19 Noroeste 26 Oeste 0 -- -- 89
2018-07-25 02:00:00 21.1 19 Noroeste 35 Noroeste 0 -- -- 88
2018-07-25 01:00:00 24 13 Oeste 24 Sur 0 -- -- 75
2018-07-25 00:00:00 24.8 19 Sur 26 Sur 0 -- -- 71
2018-07-24 23:00:00 26.1 12 Este 20 Sur 0 -- -- 69
2018-07-24 22:00:00 28.2 12 Sudeste 20 Sudeste 0 -- -- 49
2018-07-24 21:00:00 29.8 14 Nordeste 19 Nordeste 0 -- -- 36
2018-07-24 20:00:00 30.7 12 Este 21 Nordeste 0 -- -- 33
2018-07-24 19:00:00 31.2 8 Nordeste 30 Nordeste 0 -- -- 34
2018-07-24 18:00:00 31.4 12 Norte 26 Nordeste 0 -- -- 35
2018-07-24 17:00:00 31.2 13 Nordeste 32 Nordeste 0 -- -- 36
2018-07-24 16:00:00 30.7 13 Nordeste 31 Nordeste 0 -- -- 38
2018-07-24 15:00:00 30.1 15 Nordeste 27 Nordeste 0 -- -- 41
2018-07-24 14:00:00 29.6 14 Nordeste 26 Nordeste 0 -- -- 43
2018-07-24 13:00:00 28.4 12 Nordeste 26 Nordeste 0 -- -- 49
2018-07-24 12:00:00 27.6 15 Nordeste 24 Nordeste 0 -- -- 54
2018-07-24 11:00:00 26.4 12 Nordeste 18 Nordeste 0 -- -- 56
2018-07-24 10:00:00 25.3 5 Noroeste 10 Noroeste 0 -- -- 63
2018-07-24 09:00:00 23.5 4 Noroeste 15 Sudoeste 0 -- -- 60
2018-07-24 08:00:00 22.9 13 Sudoeste 16 Sudoeste 0 -- -- 60
2018-07-24 07:00:00 22.2 5 Sur 12 Sur 0 -- -- 62
2018-07-24 06:00:00 22.2 4 Sur 10 Sudoeste 0 -- -- 62
2018-07-24 05:00:00 22.7 9 Sudoeste 13 Oeste 0 -- -- 65
2018-07-24 04:00:00 23 7 Oeste 13 Oeste 0 -- -- 61
2018-07-24 03:00:00 23.1 12 Sudoeste 23 Oeste 0 -- -- 61
2018-07-24 02:00:00 20.9 16 Sudoeste 32 Sudoeste 0 -- -- 83
2018-07-24 01:00:00 22.9 15 Sur 21 Sur 0 -- -- 76
2018-07-24 00:00:00 24.2 18 Sur 23 Sur 0 -- -- 71
2018-07-23 23:00:00 25.3 16 Sur 21 Sur 0 -- -- 68
2018-07-23 22:00:00 26.4 15 Sudeste 22 Sudeste 0 -- -- 65
2018-07-23 21:00:00 27.9 8 Sudeste 27 Este 0 -- -- 56
2018-07-23 20:00:00 29 23 Este 29 Nordeste 0 -- -- 37
2018-07-23 19:00:00 29.2 22 Nordeste 33 Este 0 -- -- 38
2018-07-23 18:00:00 29.6 21 Nordeste 32 Nordeste 0 -- -- 39
2018-07-23 17:00:00 29.4 19 Nordeste 30 Nordeste 0 -- -- 41
2018-07-23 16:00:00 29.3 21 Nordeste 31 Este 0 -- -- 42
2018-07-23 15:00:00 28.1 19 Este 30 Nordeste 0 -- -- 45
2018-07-23 14:00:00 26.9 13 Nordeste 21 Este 0 -- -- 48
2018-07-23 13:00:00 25.7 11 Nordeste 21 Nordeste 0 -- -- 51
2018-07-23 12:00:00 24.1 9 Este 20 Este 0 -- -- 54
2018-07-23 11:00:00 22.9 11 Este 19 Nordeste 0 -- -- 55
2018-07-23 10:00:00 21.7 8 Este 13 Nordeste 0 -- -- 57
2018-07-23 09:00:00 20.2 2 Sudeste 5 Nordeste 0 -- -- 63
2018-07-23 08:00:00 19.5 2 Nordeste 5 Nordeste 0 -- -- 64
2018-07-23 07:00:00 17.6 5 Sudoeste 10 Oeste 0 -- -- 69
2018-07-23 06:00:00 17 10 Oeste 15 Oeste 0 -- -- 72
2018-07-23 05:00:00 17.1 14 Oeste 20 Oeste 0 -- -- 72
2018-07-23 04:00:00 17.4 16 Oeste 21 Sudoeste 0 -- -- 71
2018-07-23 03:00:00 17.8 17 Oeste 20 Oeste 0 -- -- 69
2018-07-23 02:00:00 19 14 Oeste 20 Oeste 0 -- -- 64
2018-07-23 01:00:00 19.5 15 Oeste 23 Noroeste 0 -- -- 61
2018-07-23 00:00:00 21.3 14 Noroeste 18 Noroeste 0 -- -- 53